ACT        NSW        VIC        QLD        SA        WA        TAS        NT        INFO        CALC            by VK5ZD

Past Date/Time: (dd/mm/yyyy hh:mm or blank for current data)    

  Atmospheric Gas Attenuation - ITU Rec 676-11   --------------- dB/100km ---------------
TAS Stations Date Time Temp RH % AH g/m3 Dew Point Wind Direction Speed kph Gust kph Barometer mB Rainfall Since 9am 24GHz 47GHz 76GHz 122GHz 134GHz 241GHz
Bicheno 08/05 09:00 12 64 6.82 5.5 19 1013.1 0.8 15.9 23.6 33.6 88.0 77.4 264.7
Bushy Park 08/05 11:30 12.8 64 7.17 6.2 17 28 1013.1 0 16.6 23.9 34.6 90.7 81.0 277.5
Butlers Gorge 08/05 11:30 6.7 92 6.99 5.5 11 24 1013.1 0.2 16.5 25.3 36.6 96.0 85.2 291.2
Campania 08/05 11:30 14 54 6.51 4.9 20 43 1013.1 0 15.1 22.6 31.7 82.7 71.7 244.8
Cape Bruny Aws 08/05 11:30 12.1 68 7.29 6.4 44 65 1014.8 0 16.9 24.3 35.5 92.9 83.4 285.8
Cape Sorell 08/05 11:30 13.4 79 9.18 9.8 43 48 1018.1 0 20.8 27.2 42.6 111.8 107.1 368.9
Cressy 08/05 11:30 13.2 55 6.32 4.4 19 28 1013.1 0 14.8 22.5 31.3 81.7 70.1 239.1
Davey Gorge (Pws) 08/05 11:00 10.3 91 8.72 8.9 20 24 1013.1 0.2 20.0 27.1 42.1 110.6 104.6 359.8
Dennes Point 08/05 11:30 13.3 61 7.05 5.9 28 41 1014.9 0 16.3 23.6 34.0 89.0 79.1 270.9
Devonport Airport 08/05 11:30 16.5 56 7.86 7.7 24 35 1015.9 0 17.9 24.1 35.8 93.7 86.0 295.2
Dove River (Pws) 08/05 11:00 4 97 6.17 3.6 28 35 1013.1 0 14.8 24.7 34.4 90.1 76.8 261.4
Dover 08/05 09:00 10 83 7.8 7.3 32 1013.1 3 18.1 25.7 38.4 100.7 92.4 316.9
Dunalley 08/05 11:30 12.5 68 7.48 6.8 50 65 1014.1 0 17.3 24.5 36.0 94.3 85.4 292.7
Fingal 08/05 11:30 12.5 53 5.83 3.2 22 43 1013.1 0 13.7 21.9 29.7 77.5 64.7 220.2
Flinders Island Airport 08/05 11:30 15.4 61 8.01 7.9 39 50 1015.5 0 18.3 24.6 36.8 96.5 89.0 305.8
Friendly Beaches 08/05 11:30 13.9 53 6.35 4.5 24 41 1013.7 0 14.8 22.4 31.1 81.3 69.8 238.4
Grove 08/05 11:30 11.9 65 6.88 5.5 19 33 1013.1 0 16.0 23.7 33.9 88.7 78.3 267.7
Hartz Mountains 08/05 11:30 4.7 96 6.4 4.1 50 69 1013.1 0 15.3 24.9 35.1 91.8 79.2 270.0
Hobart 08/05 11:30 12.7 57 6.35 4.4 20 35 1014.9 0 14.8 22.7 31.6 82.6 71.0 242.3
Hobart Airport 08/05 11:30 12.8 63 7.06 5.9 20 30 1014.7 0 16.3 23.8 34.3 89.7 79.7 273.0
Hobart Bushland Operations Depot (Hcc) 08/05 11:20 11.1 62 6.25 4.2 11 15 1013.1 0 14.7 22.9 31.8 83.1 71.1 242.4
Kennaook / Cape Grim 08/05 11:30 13.3 76 8.78 9.2 48 63 1019.9 0 20.0 26.6 41.1 107.8 102.0 350.9
King Island Airport 08/05 11:30 13.7 76 9 9.6 30 43 1022.6 0.2 20.4 26.9 41.9 109.9 104.7 360.3
Kunanyi / Mount Wellington 08/05 11:30 1.8 100 5.49 1.8 1013.1 0 13.4 24.1 32.5 85.0 69.5 235.6
Larapuna (Eddystone Point) 08/05 11:30 16.9 50 7.19 6.4 9 11 1014.5 0 16.5 22.9 33.1 86.4 77.3 264.8
Launceston 08/05 11:30 16.8 46 6.58 5.1 19 30 1013.1 0 15.2 22.0 30.8 80.6 70.0 239.4
Launceston Airport 08/05 11:30 14.9 49 6.24 4.3 22 33 1015.3 0 14.5 22.0 30.4 79.4 67.8 231.2
Liawenee 08/05 11:30 4.6 95 6.29 3.9 35 50 1015.4 0 15.0 24.8 34.8 90.9 78.0 265.6
Low Head 08/05 11:30 15.2 64 8.31 8.4 41 46 1015.4 0 18.9 25.1 38.1 99.8 93.1 320.0
Low Rocky Point 08/05 11:30 11.9 85 9 9.5 32 44 1017.9 0.2 20.5 27.3 42.6 112.0 106.7 367.3
Luncheon Hill 08/05 11:30 9.8 90 8.35 8.2 22 35 1013.1 0 19.2 26.7 40.8 107.1 100.2 344.1
Maatsuyker Island 08/05 11:30 10.2 100 9.52 10.2 33 44 1016.8 0.2 21.7 28.7 45.8 120.3 116.4 401.0
Macquarie Island 08/05 11:30 2 70 3.89 -2.9 39 48 987.6 0 9.9 20.6 25.1 65.6 47.0 157.0
Maria Island 08/05 11:30 11.7 73 7.64 7 61 78 1013.6 0 17.6 25.0 37.0 96.9 88.3 302.9
Marrawah 08/05 09:00 11.7 79 8.26 8.3 33 1017.9 14 19.0 26.1 39.7 104.0 96.9 332.9
Mount Read 08/05 11:30 3.8 100 6.28 3.8 50 67 1016.4 2.8 15.0 25.0 35.1 91.9 78.7 268.1
Ouse 08/05 11:30 14.7 55 6.92 5.8 26 37 1015.8 0 16.0 23.1 33.0 86.3 76.2 260.8
Pws A 08/05 11:00 8.4 100 8.49 8.4 0 0 1013.1 0.2 19.6 27.3 42.1 110.7 104.0 357.3
Pws C 08/05 11:00 12 76 8.1 8 13 19 1013.1 0 18.6 25.6 38.7 101.4 94.0 322.8
Ross 08/05 09:00 10.5 62 6.01 3.5 11 1013.1 0.4 14.2 22.7 31.1 81.3 68.6 233.6
Ross (Tfs) 08/05 11:20 12.8 58 6.5 4.8 24 30 1013.1 0 15.2 22.9 32.1 83.9 72.6 248.1
Scotts Peak 08/05 11:30 8 95 7.86 7.2 19 30 1013.1 2 18.3 26.4 39.7 104.0 95.7 328.1
Scottsdale 08/05 11:30 14.2 51 6.23 4.2 17 28 1014.7 0 14.5 22.2 30.6 79.9 68.2 232.7
Sheffield 08/05 11:30 13.5 63 7.37 6.6 9 13 1015.9 0 17.0 24.1 35.2 92.2 83.0 284.6
Smithton 08/05 11:30 13.4 82 9.53 10.4 30 37 1019 0 21.6 27.8 44.1 115.8 112.0 385.9
St Helens 08/05 11:30 14 50 6.03 3.8 15 28 1014.6 0 14.1 21.9 30.0 78.2 66.0 224.8
Strahan 08/05 11:30 11.4 92 9.44 10.1 24 33 1018.8 0.2 21.5 28.2 44.8 117.8 113.7 391.5
Swan Island 08/05 11:30 16.4 49 6.84 5.7 15 26 1014.7 0 15.7 22.5 32.0 83.6 73.5 251.7
Swansea 08/05 09:00 11.1 73 7.35 6.4 6 1013.1 0.2 17.0 24.6 36.1 94.5 85.1 291.7
Tasman Island 08/05 11:30 10.2 72 6.85 5.4 48 83 1013 0.2 16.0 24.1 34.5 90.3 79.6 272.1
Tfs A 08/05 11:20 11.4 79 8.11 8 7 9 1013.1 0 18.7 25.8 39.0 102.3 94.9 325.8
Tfs B 08/05 11:20 17.7 48 7.24 6.7 7 13 1013.1 0 16.5 22.7 32.9 86.0 77.0 264.0
Tfs C 08/05 11:20 16.2 53 7.31 6.6 28 32 1013.1 0 16.7 23.2 33.7 88.3 79.3 271.9
Tunnack 08/05 11:30 11.1 61 6.15 3.9 26 35 1014.6 0 14.5 22.8 31.5 82.2 69.9 238.3
Waratah (Tfs) 08/05 11:20 7.4 94 7.48 6.5 13 19 1013.1 0.4 17.5 25.9 38.4 100.5 91.1 312.1
Warra 08/05 11:30 9.3 82 7.37 6.4 17 33 1013.1 0 17.2 25.2 37.0 96.9 87.4 299.4
Wynyard 08/05 11:30 13.8 71 8.46 8.6 20 30 1017.4 0 19.3 25.8 39.4 103.4 96.9 333.2

Last Refresh: 08-May-2026 11:02:57

Bureau of Meteorology